Time,TemperatureF,DewpointF,PressureIn,WindDirection,WindDirectionDegrees,WindSpeedMPH,WindSpeedGustMPH,Humidity,HourlyPrecipIn,Conditions,Clouds,dailyrainin,SoftwareType,DateUTC
2013-01-23 07:40:00,0.1,-12.3,30.09,West,281,2.0,2.0,55,0.00,,,0.00,Wunderground v.1.15,2013-01-23 12:40:00,
2013-01-23 07:41:00,0.2,-12.2,30.09,WNW,296,2.0,3.0,55,0.00,,,0.00,Wunderground v.1.15,2013-01-23 12:41:00,
2013-01-23 07:44:00,0.3,-12.5,30.09,NW,315,2.0,5.0,54,0.00,,,0.00,Wunderground v.1.15,2013-01-23 12:44:00,
2013-01-23 07:50:00,0.5,-12.3,30.09,North,5,2.0,2.0,54,0.00,,,0.00,Wunderground v.1.15,2013-01-23 12:50:00,
2013-01-23 07:55:00,0.5,-12.6,30.10,North,355,3.0,7.0,53,0.00,,,0.00,Wunderground v.1.15,2013-01-23 12:55:00,
2013-01-23 08:00:00,0.6,-12.5,30.10,NW,310,3.0,3.0,53,0.00,,,0.00,Wunderground v.1.15,2013-01-23 13:00:00,
2013-01-23 08:06:00,0.8,-12.4,30.10,NW,325,3.0,6.0,53,0.00,,,0.00,Wunderground v.1.15,2013-01-23 13:06:00,
2013-01-23 08:12:00,0.9,-12.3,30.10,WSW,252,3.0,6.0,53,0.00,,,0.00,Wunderground v.1.15,2013-01-23 13:12:00,
2013-01-23 08:17:00,1.1,-12.5,30.10,NW,316,2.0,6.0,52,0.00,,,0.00,Wunderground v.1.15,2013-01-23 13:17:00,
2013-01-23 08:22:00,1.3,-12.7,30.10,SW,217,3.0,6.0,51,0.00,,,0.00,Wunderground v.1.15,2013-01-23 13:22:00,
2013-01-23 08:28:00,1.3,-13.1,30.09,West,269,4.0,9.0,50,0.00,,,0.00,Wunderground v.1.15,2013-01-23 13:28:00,
2013-01-23 08:33:00,1.4,-13.4,30.09,West,277,4.0,6.0,49,0.00,,,0.00,Wunderground v.1.15,2013-01-23 13:33:00,
2013-01-23 08:38:00,1.8,-13.0,30.09,NW,320,3.0,6.0,49,0.00,,,0.00,Wunderground v.1.15,2013-01-23 13:38:00,
2013-01-23 08:43:00,1.9,-13.7,30.10,SW,234,2.0,6.0,47,0.00,,,0.00,Wunderground v.1.15,2013-01-23 13:43:00,
2013-01-23 08:48:00,1.7,-14.3,30.10,WNW,286,3.0,10.0,46,0.00,,,0.00,Wunderground v.1.15,2013-01-23 13:48:00,
2013-01-23 08:53:00,1.8,-14.3,30.10,NNW,345,4.0,10.0,46,0.00,,,0.00,Wunderground v.1.15,2013-01-23 13:53:00,
2013-01-23 08:58:00,2.0,-14.1,30.10,WSW,250,4.0,10.0,46,0.00,,,0.00,Wunderground v.1.15,2013-01-23 13:58:00,
2013-01-23 09:03:00,2.2,-13.9,30.10,NW,321,4.0,6.0,46,0.00,,,0.00,Wunderground v.1.15,2013-01-23 14:03:00,
2013-01-23 09:09:00,2.0,-15.0,30.10,SSE,167,5.0,10.0,44,0.00,,,0.00,Wunderground v.1.15,2013-01-23 14:09:00,
2013-01-23 09:14:00,1.8,-15.6,30.10,WNW,287,6.0,9.0,43,0.00,,,0.00,Wunderground v.1.15,2013-01-23 14:14:00,
2013-01-23 09:20:00,1.8,-15.6,30.10,West,261,6.0,6.0,43,0.00,,,0.00,Wunderground v.1.15,2013-01-23 14:20:00,
2013-01-23 09:25:00,1.9,-16.0,30.10,SSW,209,5.0,6.0,42,0.00,,,0.00,Wunderground v.1.15,2013-01-23 14:25:00,
2013-01-23 09:30:00,1.8,-15.6,30.10,NNE,12,6.0,6.0,43,0.00,,,0.00,Wunderground v.1.15,2013-01-23 14:30:00,
2013-01-23 09:36:00,1.7,-15.7,30.10,NNW,338,7.0,11.0,43,0.00,,,0.00,Wunderground v.1.15,2013-01-23 14:36:00,
2013-01-23 09:41:00,1.7,-15.7,30.10,NW,311,7.0,15.0,43,0.00,,,0.00,Wunderground v.1.15,2013-01-23 14:41:00,
2013-01-23 09:46:00,2.0,-15.4,30.10,NNW,341,7.0,15.0,43,0.00,,,0.00,Wunderground v.1.15,2013-01-23 14:46:00,
2013-01-23 09:51:00,2.1,-15.3,30.10,North,5,6.0,7.0,43,0.00,,,0.00,Wunderground v.1.15,2013-01-23 14:51:00,
2013-01-23 09:57:00,1.7,-16.1,30.09,NNW,329,8.0,12.0,42,0.00,,,0.00,Wunderground v.1.15,2013-01-23 14:57:00,
2013-01-23 10:02:00,1.9,-15.5,30.10,WNW,289,8.0,8.0,43,0.00,,,0.00,Wunderground v.1.15,2013-01-23 15:02:00,
2013-01-23 10:07:00,1.9,-15.5,30.10,NNW,333,6.0,10.0,43,0.00,,,0.00,Wunderground v.1.15,2013-01-23 15:07:00,
2013-01-23 10:12:00,2.0,-15.9,30.10,NW,311,7.0,11.0,42,0.00,,,0.00,Wunderground v.1.15,2013-01-23 15:12:00,
2013-01-23 10:17:00,2.0,-15.4,30.10,North,360,7.0,11.0,43,0.00,,,0.00,Wunderground v.1.15,2013-01-23 15:17:00,
2013-01-23 10:22:00,2.2,-15.2,30.10,NW,326,6.0,13.0,43,0.00,,,0.00,Wunderground v.1.15,2013-01-23 15:22:00,
2013-01-23 10:28:00,1.9,-16.0,30.10,West,269,9.0,16.0,42,0.00,,,0.00,Wunderground v.1.15,2013-01-23 15:28:00,
2013-01-23 10:33:00,2.3,-15.6,30.09,WNW,291,8.0,12.0,42,0.00,,,0.00,Wunderground v.1.15,2013-01-23 15:33:00,
2013-01-23 10:39:00,2.8,-15.1,30.08,WSW,242,7.0,12.0,42,0.00,,,0.00,Wunderground v.1.15,2013-01-23 15:39:00,
2013-01-23 10:44:00,2.7,-15.2,30.08,NNW,342,6.0,10.0,42,0.00,,,0.00,Wunderground v.1.15,2013-01-23 15:44:00,
2013-01-23 10:49:00,2.7,-15.7,30.08,NNW,327,7.0,10.0,41,0.00,,,0.00,Wunderground v.1.15,2013-01-23 15:49:00,
2013-01-23 10:54:00,2.9,-15.1,30.08,NW,311,7.0,9.0,42,0.00,,,0.00,Wunderground v.1.15,2013-01-23 15:54:00,
2013-01-23 10:59:00,3.1,-14.9,30.07,NW,317,6.0,9.0,42,0.00,,,0.00,Wunderground v.1.15,2013-01-23 15:59:00,
2013-01-23 11:04:00,3.3,-14.7,30.08,NNW,327,6.0,7.0,42,0.00,,,0.00,Wunderground v.1.15,2013-01-23 16:04:00,
2013-01-23 11:10:00,3.1,-14.9,30.07,NNE,13,6.0,6.0,42,0.00,,,0.00,Wunderground v.1.15,2013-01-23 16:10:00,
2013-01-23 11:15:00,3.1,-15.3,30.07,West,273,6.0,9.0,41,0.00,,,0.00,Wunderground v.1.15,2013-01-23 16:15:00,
2013-01-23 11:20:00,3.1,-15.3,30.07,WSW,251,6.0,9.0,41,0.00,,,0.00,Wunderground v.1.15,2013-01-23 16:20:00,
2013-01-23 11:26:00,3.4,-14.6,30.07,NNE,21,5.0,15.0,42,0.00,,,0.00,Wunderground v.1.15,2013-01-23 16:26:00,
2013-01-23 11:31:00,3.5,-15.0,30.07,SW,219,4.0,8.0,41,0.00,,,0.00,Wunderground v.1.15,2013-01-23 16:31:00,
2013-01-23 11:36:00,3.5,-15.0,30.07,SW,234,4.0,9.0,41,0.00,,,0.00,Wunderground v.1.15,2013-01-23 16:36:00,
2013-01-23 11:41:00,3.6,-14.9,30.06,SW,236,5.0,6.0,41,0.00,,,0.00,Wunderground v.1.15,2013-01-23 16:41:00,
2013-01-23 11:47:00,3.9,-14.1,30.07,WNW,290,5.0,13.0,42,0.00,,,0.00,Wunderground v.1.15,2013-01-23 16:47:00,
2013-01-23 11:52:00,4.0,-14.5,30.07,NNW,337,5.0,10.0,41,0.00,,,0.00,Wunderground v.1.15,2013-01-23 16:52:00,
2013-01-23 11:57:00,3.9,-14.1,30.06,West,269,5.0,10.0,42,0.00,,,0.00,Wunderground v.1.15,2013-01-23 16:57:00,
2013-01-23 12:02:00,3.8,-14.7,30.06,NW,325,6.0,10.0,41,0.00,,,0.00,Wunderground v.1.15,2013-01-23 17:02:00,
2013-01-23 12:08:00,4.0,-14.5,30.06,WNW,296,7.0,10.0,41,0.00,,,0.00,Wunderground v.1.15,2013-01-23 17:08:00,
2013-01-23 12:13:00,4.3,-13.8,30.06,NNE,22,5.0,7.0,42,0.00,,,0.00,Wunderground v.1.15,2013-01-23 17:13:00,
2013-01-23 12:18:00,4.1,-14.4,30.06,NW,311,6.0,9.0,41,0.00,,,0.00,Wunderground v.1.15,2013-01-23 17:18:00,
2013-01-23 12:23:00,4.1,-14.4,30.06,West,277,7.0,10.0,41,0.00,,,0.00,Wunderground v.1.15,2013-01-23 17:23:00,
2013-01-23 12:28:00,4.8,-13.3,30.06,WSW,252,6.0,14.0,42,0.00,,,0.00,Wunderground v.1.15,2013-01-23 17:28:00,
2013-01-23 12:33:00,4.6,-14.5,30.05,WNW,295,5.0,7.0,40,0.00,,,0.00,Wunderground v.1.15,2013-01-23 17:33:00,
2013-01-23 12:38:00,4.9,-14.2,30.05,WNW,287,6.0,7.0,40,0.00,,,0.00,Wunderground v.1.15,2013-01-23 17:38:00,
2013-01-23 12:44:00,4.8,-14.3,30.05,North,350,6.0,11.0,40,0.00,,,0.00,Wunderground v.1.15,2013-01-23 17:44:00,
2013-01-23 12:49:00,5.2,-13.4,30.05,NW,317,5.0,11.0,41,0.00,,,0.00,Wunderground v.1.15,2013-01-23 17:49:00,
2013-01-23 12:55:00,5.2,-13.9,30.05,NNE,19,4.0,7.0,40,0.00,,,0.00,Wunderground v.1.15,2013-01-23 17:55:00,
2013-01-23 13:00:00,5.3,-13.8,30.05,WSW,237,4.0,7.0,40,0.00,,,0.00,Wunderground v.1.15,2013-01-23 18:00:00,
2013-01-23 13:06:00,5.6,-13.6,30.05,NNW,346,4.0,7.0,40,0.00,,,0.00,Wunderground v.1.15,2013-01-23 18:06:00,
2013-01-23 13:11:00,5.4,-14.2,30.05,WSW,257,4.0,10.0,39,0.00,,,0.00,Wunderground v.1.15,2013-01-23 18:11:00,
2013-01-23 13:16:00,5.4,-13.7,30.05,West,281,5.0,11.0,40,0.00,,,0.00,Wunderground v.1.15,2013-01-23 18:16:00,
2013-01-23 13:21:00,5.3,-13.8,30.05,North,5,5.0,6.0,40,0.00,,,0.00,Wunderground v.1.15,2013-01-23 18:21:00,
2013-01-23 13:26:00,5.3,-13.8,30.05,NNW,331,5.0,10.0,40,0.00,,,0.00,Wunderground v.1.15,2013-01-23 18:26:00,
2013-01-23 13:32:00,5.2,-14.4,30.05,NNW,347,5.0,10.0,39,0.00,,,0.00,Wunderground v.1.15,2013-01-23 18:32:00,
2013-01-23 13:37:00,5.3,-13.8,30.05,NW,319,6.0,10.0,40,0.00,,,0.00,Wunderground v.1.15,2013-01-23 18:37:00,
2013-01-23 13:42:00,6.0,-13.2,30.05,North,355,4.0,6.0,40,0.00,,,0.00,Wunderground v.1.15,2013-01-23 18:42:00,
2013-01-23 13:47:00,6.2,-13.0,30.05,WNW,298,4.0,6.0,40,0.00,,,0.00,Wunderground v.1.15,2013-01-23 18:47:00,
2013-01-23 13:52:00,6.5,-12.7,30.05,NW,304,4.0,9.0,40,0.00,,,0.00,Wunderground v.1.15,2013-01-23 18:52:00,
2013-01-23 13:57:00,6.1,-14.1,30.05,WSW,240,5.0,9.0,38,0.00,,,0.00,Wunderground v.1.15,2013-01-23 18:57:00,
2013-01-23 14:02:00,6.0,-14.2,30.05,NNW,343,6.0,6.0,38,0.00,,,0.00,Wunderground v.1.15,2013-01-23 19:02:00,
2013-01-23 14:08:00,6.2,-14.0,30.05,NW,313,5.0,7.0,38,0.00,,,0.00,Wunderground v.1.15,2013-01-23 19:08:00,
2013-01-23 14:13:00,6.2,-14.0,30.05,West,263,5.0,11.0,38,0.00,,,0.00,Wunderground v.1.15,2013-01-23 19:13:00,
2013-01-23 14:18:00,6.4,-13.3,30.05,WNW,300,4.0,11.0,39,0.00,,,0.00,Wunderground v.1.15,2013-01-23 19:18:00,
2013-01-23 14:23:00,6.1,-14.7,30.05,West,264,5.0,11.0,37,0.00,,,0.00,Wunderground v.1.15,2013-01-23 19:23:00,
2013-01-23 14:28:00,5.7,-15.0,30.05,WNW,294,7.0,11.0,37,0.00,,,0.00,Wunderground v.1.15,2013-01-23 19:28:00,
2013-01-23 14:33:00,5.9,-14.3,30.05,WNW,297,6.0,8.0,38,0.00,,,0.00,Wunderground v.1.15,2013-01-23 19:33:00,
2013-01-23 14:39:00,5.9,-14.3,30.05,WNW,288,5.0,8.0,38,0.00,,,0.00,Wunderground v.1.15,2013-01-23 19:39:00,
2013-01-23 14:44:00,5.9,-14.3,30.05,NNW,333,6.0,12.0,38,0.00,,,0.00,Wunderground v.1.15,2013-01-23 19:44:00,
2013-01-23 14:49:00,5.5,-14.7,30.05,NNW,331,7.0,12.0,38,0.00,,,0.00,Wunderground v.1.15,2013-01-23 19:49:00,
2013-01-23 14:54:00,5.5,-14.7,30.05,West,263,7.0,16.0,38,0.00,,,0.00,Wunderground v.1.15,2013-01-23 19:54:00,
2013-01-23 14:59:00,5.6,-14.6,30.05,North,5,6.0,16.0,38,0.00,,,0.00,Wunderground v.1.15,2013-01-23 19:59:00,
2013-01-23 15:04:00,5.4,-14.8,30.06,West,280,6.0,9.0,38,0.00,,,0.00,Wunderground v.1.15,2013-01-23 20:04:00,
2013-01-23 15:10:00,5.7,-14.5,30.06,NW,304,5.0,10.0,38,0.00,,,0.00,Wunderground v.1.15,2013-01-23 20:10:00,
2013-01-23 15:15:00,5.6,-14.6,30.06,West,263,5.0,10.0,38,0.00,,,0.00,Wunderground v.1.15,2013-01-23 20:15:00,
2013-01-23 15:20:00,5.9,-14.3,30.06,WNW,296,5.0,5.0,38,0.00,,,0.00,Wunderground v.1.15,2013-01-23 20:20:00,
2013-01-23 15:25:00,6.0,-14.7,30.05,WSW,248,5.0,9.0,37,0.00,,,0.00,Wunderground v.1.15,2013-01-23 20:25:00,
2013-01-23 15:30:00,6.0,-14.2,30.05,NW,306,5.0,5.0,38,0.00,,,0.00,Wunderground v.1.15,2013-01-23 20:30:00,
2013-01-23 15:35:00,6.0,-14.7,30.05,NNW,327,5.0,9.0,37,0.00,,,0.00,Wunderground v.1.15,2013-01-23 20:35:00,
2013-01-23 15:41:00,6.0,-14.7,30.05,WSW,252,4.0,8.0,37,0.00,,,0.00,Wunderground v.1.15,2013-01-23 20:41:00,
2013-01-23 15:46:00,5.8,-14.9,30.05,NW,311,5.0,11.0,37,0.00,,,0.00,Wunderground v.1.15,2013-01-23 20:46:00,
2013-01-23 15:51:00,5.6,-15.1,30.05,NW,313,6.0,6.0,37,0.00,,,0.00,Wunderground v.1.15,2013-01-23 20:51:00,
2013-01-23 15:56:00,5.6,-14.6,30.06,North,11,5.0,6.0,38,0.00,,,0.00,Wunderground v.1.15,2013-01-23 20:56:00,
2013-01-23 16:01:00,5.5,-14.7,30.06,NW,315,4.0,6.0,38,0.00,,,0.00,Wunderground v.1.15,2013-01-23 21:01:00,
2013-01-23 16:07:00,5.3,-15.4,30.06,NNW,346,4.0,8.0,37,0.00,,,0.00,Wunderground v.1.15,2013-01-23 21:07:00,
2013-01-23 16:13:00,5.0,-15.1,30.06,WNW,296,4.0,6.0,38,0.00,,,0.00,Wunderground v.1.15,2013-01-23 21:13:00,
2013-01-23 16:18:00,4.9,-15.2,30.06,West,274,4.0,6.0,38,0.00,,,0.00,Wunderground v.1.15,2013-01-23 21:18:00,
2013-01-23 16:23:00,4.7,-15.4,30.06,NNW,333,3.0,6.0,38,0.00,,,0.00,Wunderground v.1.15,2013-01-23 21:23:00,
2013-01-23 16:29:00,4.6,-15.0,30.06,West,271,3.0,6.0,39,0.00,,,0.00,Wunderground v.1.15,2013-01-23 21:29:00,
2013-01-23 16:34:00,4.5,-15.1,30.06,West,261,3.0,12.0,39,0.00,,,0.00,Wunderground v.1.15,2013-01-23 21:34:00,
2013-01-23 16:40:00,4.4,-15.2,30.07,West,267,3.0,3.0,39,0.00,,,0.00,Wunderground v.1.15,2013-01-23 21:40:00,
2013-01-23 16:45:00,4.2,-14.8,30.07,NNW,331,3.0,6.0,40,0.00,,,0.00,Wunderground v.1.15,2013-01-23 21:45:00,
2013-01-23 16:51:00,4.1,-14.9,30.06,WNW,284,3.0,7.0,40,0.00,,,0.00,Wunderground v.1.15,2013-01-23 21:51:00,
2013-01-23 16:56:00,4.0,-15.0,30.07,NW,317,3.0,7.0,40,0.00,,,0.00,Wunderground v.1.15,2013-01-23 21:56:00,
2013-01-23 17:01:00,3.9,-15.1,30.07,WNW,284,3.0,6.0,40,0.00,,,0.00,Wunderground v.1.15,2013-01-23 22:01:00,
2013-01-23 17:06:00,3.8,-14.7,30.07,NW,325,3.0,6.0,41,0.00,,,0.00,Wunderground v.1.15,2013-01-23 22:06:00,
2013-01-23 17:12:00,3.7,-14.3,30.07,West,274,2.0,6.0,42,0.00,,,0.00,Wunderground v.1.15,2013-01-23 22:12:00,
2013-01-23 17:17:00,3.6,-14.4,30.07,NW,304,2.0,6.0,42,0.00,,,0.00,Wunderground v.1.15,2013-01-23 22:17:00,
2013-01-23 17:23:00,3.5,-14.5,30.07,NNW,327,2.0,6.0,42,0.00,,,0.00,Wunderground v.1.15,2013-01-23 22:23:00,
2013-01-23 17:28:00,3.3,-14.2,30.07,WNW,284,1.0,6.0,43,0.00,,,0.00,Wunderground v.1.15,2013-01-23 22:28:00,
2013-01-23 17:33:00,3.2,-14.3,30.08,NNW,338,0.0,6.0,43,0.00,,,0.00,Wunderground v.1.15,2013-01-23 22:33:00,
2013-01-23 17:39:00,3.1,-14.4,30.08,NW,305,1.0,6.0,43,0.00,,,0.00,Wunderground v.1.15,2013-01-23 22:39:00,
2013-01-23 17:44:00,3.0,-14.5,30.08,NNW,328,1.0,6.0,43,0.00,,,0.00,Wunderground v.1.15,2013-01-23 22:44:00,
2013-01-23 17:49:00,3.0,-14.5,30.08,NW,320,1.0,6.0,43,0.00,,,0.00,Wunderground v.1.15,2013-01-23 22:49:00,
2013-01-23 17:54:00,2.9,-14.6,30.08,NW,311,2.0,6.0,43,0.00,,,0.00,Wunderground v.1.15,2013-01-23 22:54:00,
2013-01-23 18:00:00,2.9,-14.1,30.08,WSW,256,1.0,6.0,44,0.00,,,0.00,Wunderground v.1.15,2013-01-23 23:00:00,
2013-01-23 18:05:00,2.9,-14.1,30.08,NNE,21,1.0,6.0,44,0.00,,,0.00,Wunderground v.1.15,2013-01-23 23:05:00,
2013-01-23 18:10:00,2.9,-14.6,30.08,NW,306,2.0,2.0,43,0.00,,,0.00,Wunderground v.1.15,2013-01-23 23:10:00,
2013-01-23 18:15:00,2.9,-14.6,30.08,NNE,16,3.0,6.0,43,0.00,,,0.00,Wunderground v.1.15,2013-01-23 23:15:00,
2013-01-23 18:21:00,2.9,-14.6,30.08,NW,315,3.0,6.0,43,0.00,,,0.00,Wunderground v.1.15,2013-01-23 23:21:00,
2013-01-23 18:27:00,2.8,-14.2,30.08,NNW,327,2.0,6.0,44,0.00,,,0.00,Wunderground v.1.15,2013-01-23 23:27:00,
2013-01-23 18:33:00,2.8,-14.7,30.08,WNW,302,2.0,6.0,43,0.00,,,0.00,Wunderground v.1.15,2013-01-23 23:33:00,
2013-01-23 18:38:00,2.7,-14.8,30.08,NNW,329,3.0,7.0,43,0.00,,,0.00,Wunderground v.1.15,2013-01-23 23:38:00,
2013-01-23 18:43:00,2.7,-14.8,30.09,NW,324,3.0,6.0,43,0.00,,,0.00,Wunderground v.1.15,2013-01-23 23:43:00,
2013-01-23 18:48:00,2.6,-14.9,30.09,North,355,2.0,6.0,43,0.00,,,0.00,Wunderground v.1.15,2013-01-23 23:48:00,
2013-01-23 18:53:00,2.5,-14.5,30.09,NW,315,2.0,6.0,44,0.00,,,0.00,Wunderground v.1.15,2013-01-23 23:53:00,
2013-01-23 18:58:00,2.4,-15.0,30.09,West,279,2.0,6.0,43,0.00,,,0.00,Wunderground v.1.15,2013-01-23 23:58:00,
2013-01-23 19:03:00,2.4,-15.0,30.09,NW,322,2.0,6.0,43,0.00,,,0.00,Wunderground v.1.15,2013-01-24 00:03:00,
2013-01-23 19:09:00,2.3,-14.7,30.09,WNW,294,1.0,6.0,44,0.00,,,0.00,Wunderground v.1.15,2013-01-24 00:09:00,
2013-01-23 19:15:00,2.2,-14.3,30.09,WNW,300,2.0,6.0,45,0.00,,,0.00,Wunderground v.1.15,2013-01-24 00:15:00,
2013-01-23 19:20:00,2.1,-14.4,30.09,West,270,1.0,6.0,45,0.00,,,0.00,Wunderground v.1.15,2013-01-24 00:20:00,
2013-01-23 19:25:00,2.0,-14.5,30.09,NNE,26,1.0,6.0,45,0.00,,,0.00,Wunderground v.1.15,2013-01-24 00:25:00,
2013-01-23 19:30:00,2.0,-14.5,30.09,NNE,13,1.0,1.0,45,0.00,,,0.00,Wunderground v.1.15,2013-01-24 00:30:00,
2013-01-23 19:35:00,1.8,-14.7,30.09,NW,310,1.0,6.0,45,0.00,,,0.00,Wunderground v.1.15,2013-01-24 00:35:00,
2013-01-23 19:41:00,1.8,-14.3,30.09,NNW,327,1.0,6.0,46,0.00,,,0.00,Wunderground v.1.15,2013-01-24 00:41:00,
2013-01-23 19:46:00,1.7,-14.3,30.09,WNW,289,1.0,6.0,46,0.00,,,0.00,Wunderground v.1.15,2013-01-24 00:46:00,
2013-01-23 19:51:00,1.7,-14.3,30.09,WNW,294,2.0,6.0,46,0.00,,,0.00,Wunderground v.1.15,2013-01-24 00:51:00,
2013-01-23 19:57:00,1.6,-14.4,30.08,West,279,1.0,6.0,46,0.00,,,0.00,Wunderground v.1.15,2013-01-24 00:57:00,
2013-01-23 20:03:00,1.6,-14.9,30.08,NW,316,1.0,6.0,45,0.00,,,0.00,Wunderground v.1.15,2013-01-24 01:03:00,
2013-01-23 20:08:00,1.6,-14.9,30.08,West,272,2.0,10.0,45,0.00,,,0.00,Wunderground v.1.15,2013-01-24 01:08:00,
2013-01-23 20:13:00,1.7,-15.2,30.08,NNW,338,3.0,6.0,44,0.00,,,0.00,Wunderground v.1.15,2013-01-24 01:13:00,
2013-01-23 20:18:00,1.7,-15.7,30.08,NW,313,4.0,6.0,43,0.00,,,0.00,Wunderground v.1.15,2013-01-24 01:18:00,
2013-01-23 20:24:00,1.7,-15.2,30.09,SW,218,3.0,6.0,44,0.00,,,0.00,Wunderground v.1.15,2013-01-24 01:24:00,
2013-01-23 20:30:00,1.6,-15.3,30.09,WNW,302,2.0,6.0,44,0.00,,,0.00,Wunderground v.1.15,2013-01-24 01:30:00,
2013-01-23 20:35:00,1.5,-15.4,30.09,West,267,2.0,6.0,44,0.00,,,0.00,Wunderground v.1.15,2013-01-24 01:35:00,
2013-01-23 20:40:00,1.4,-15.5,30.09,NW,313,1.0,6.0,44,0.00,,,0.00,Wunderground v.1.15,2013-01-24 01:40:00,
2013-01-23 20:45:00,1.4,-15.5,30.08,West,279,2.0,6.0,44,0.00,,,0.00,Wunderground v.1.15,2013-01-24 01:45:00,
2013-01-23 20:51:00,1.3,-15.2,30.08,WNW,301,2.0,6.0,45,0.00,,,0.00,Wunderground v.1.15,2013-01-24 01:51:00,
2013-01-23 20:56:00,1.3,-15.2,30.08,NNW,329,1.0,6.0,45,0.00,,,0.00,Wunderground v.1.15,2013-01-24 01:56:00,
2013-01-23 21:01:00,1.3,-15.6,30.08,West,275,2.0,6.0,44,0.00,,,0.00,Wunderground v.1.15,2013-01-24 02:01:00,
2013-01-23 21:06:00,1.3,-15.2,30.08,NW,311,3.0,6.0,45,0.00,,,0.00,Wunderground v.1.15,2013-01-24 02:06:00,
2013-01-23 21:12:00,1.3,-15.6,30.08,WNW,297,2.0,6.0,44,0.00,,,0.00,Wunderground v.1.15,2013-01-24 02:12:00,
2013-01-23 21:18:00,1.3,-15.6,30.08,NW,309,2.0,6.0,44,0.00,,,0.00,Wunderground v.1.15,2013-01-24 02:18:00,
2013-01-23 21:23:00,1.2,-15.2,30.08,WNW,297,2.0,6.0,45,0.00,,,0.00,Wunderground v.1.15,2013-01-24 02:23:00,
2013-01-23 21:28:00,1.2,-15.7,30.08,NNW,331,2.0,6.0,44,0.00,,,0.00,Wunderground v.1.15,2013-01-24 02:28:00,
2013-01-23 21:33:00,1.1,-15.8,30.08,NW,317,3.0,6.0,44,0.00,,,0.00,Wunderground v.1.15,2013-01-24 02:33:00,
2013-01-23 21:38:00,1.0,-15.4,30.08,NW,317,3.0,6.0,45,0.00,,,0.00,Wunderground v.1.15,2013-01-24 02:38:00,
2013-01-23 21:43:00,0.9,-15.5,30.08,WNW,294,2.0,6.0,45,0.00,,,0.00,Wunderground v.1.15,2013-01-24 02:43:00,
2013-01-23 21:48:00,0.8,-15.2,30.08,North,350,2.0,6.0,46,0.00,,,0.00,Wunderground v.1.15,2013-01-24 02:48:00,
2013-01-23 21:54:00,0.6,-14.9,30.08,NNW,346,0.0,6.0,47,0.00,,,0.00,Wunderground v.1.15,2013-01-24 02:54:00,
2013-01-23 21:59:00,0.5,-15.0,30.08,North,360,0.0,6.0,47,0.00,,,0.00,Wunderground v.1.15,2013-01-24 02:59:00,
2013-01-23 22:04:00,0.4,-15.1,30.08,NW,315,1.0,6.0,47,0.00,,,0.00,Wunderground v.1.15,2013-01-24 03:04:00,
2013-01-23 22:09:00,0.3,-15.2,30.08,NNW,331,1.0,6.0,47,0.00,,,0.00,Wunderground v.1.15,2013-01-24 03:09:00,
2013-01-23 22:14:00,0.4,-15.1,30.08,West,276,1.0,6.0,47,0.00,,,0.00,Wunderground v.1.15,2013-01-24 03:14:00,
2013-01-23 22:19:00,0.4,-15.1,30.08,NNE,24,1.0,6.0,47,0.00,,,0.00,Wunderground v.1.15,2013-01-24 03:19:00,
2013-01-23 22:25:00,0.4,-15.1,30.08,West,273,1.0,6.0,47,0.00,,,0.00,Wunderground v.1.15,2013-01-24 03:25:00,
2013-01-23 22:30:00,0.4,-15.1,30.07,NW,311,1.0,1.0,47,0.00,,,0.00,Wunderground v.1.15,2013-01-24 03:30:00,
2013-01-23 22:35:00,0.3,-15.2,30.08,NW,309,1.0,6.0,47,0.00,,,0.00,Wunderground v.1.15,2013-01-24 03:35:00,
2013-01-23 22:41:00,0.2,-15.3,30.08,NNW,331,0.0,6.0,47,0.00,,,0.00,Wunderground v.1.15,2013-01-24 03:41:00,
2013-01-23 22:47:00,0.0,-15.1,30.08,WNW,286,0.0,6.0,48,0.00,,,0.00,Wunderground v.1.15,2013-01-24 03:47:00,
2013-01-23 22:52:00,0.0,-15.1,30.08,NW,315,1.0,6.0,48,0.00,,,0.00,Wunderground v.1.15,2013-01-24 03:52:00,
2013-01-23 22:57:00,-0.1,-14.8,30.08,NW,315,0.0,6.0,49,0.00,,,0.00,Wunderground v.1.15,2013-01-24 03:57:00,